sensor_id;sensor_type;location;lat;lon;timestamp;temperature;humidity
1155;DHT22;566;48.414;9.118;2023-01-16T00:01:59;2.20;94.30
1155;DHT22;566;48.414;9.118;2023-01-16T00:04:26;2.20;94.30
1155;DHT22;566;48.414;9.118;2023-01-16T00:06:52;2.10;94.40
1155;DHT22;566;48.414;9.118;2023-01-16T00:09:17;2.00;94.90
1155;DHT22;566;48.414;9.118;2023-01-16T00:11:44;2.20;94.50
1155;DHT22;566;48.414;9.118;2023-01-16T00:14:09;2.10;94.60
1155;DHT22;566;48.414;9.118;2023-01-16T00:16:35;2.10;94.60
1155;DHT22;566;48.414;9.118;2023-01-16T00:19:01;2.10;94.60
1155;DHT22;566;48.414;9.118;2023-01-16T00:21:26;2.30;94.30
1155;DHT22;566;48.414;9.118;2023-01-16T00:23:58;2.40;93.90
1155;DHT22;566;48.414;9.118;2023-01-16T00:26:26;2.40;93.90
1155;DHT22;566;48.414;9.118;2023-01-16T00:28:51;2.30;94.10
1155;DHT22;566;48.414;9.118;2023-01-16T00:31:17;2.40;93.80
1155;DHT22;566;48.414;9.118;2023-01-16T00:33:43;2.30;93.80
1155;DHT22;566;48.414;9.118;2023-01-16T00:36:10;2.30;94.10
1155;DHT22;566;48.414;9.118;2023-01-16T00:38:36;2.20;94.50
1155;DHT22;566;48.414;9.118;2023-01-16T00:41:05;2.10;94.90
1155;DHT22;566;48.414;9.118;2023-01-16T00:43:31;2.00;95.20
1155;DHT22;566;48.414;9.118;2023-01-16T00:45:57;2.10;95.10
1155;DHT22;566;48.414;9.118;2023-01-16T00:48:23;2.10;95.00
1155;DHT22;566;48.414;9.118;2023-01-16T00:50:49;2.10;95.30
1155;DHT22;566;48.414;9.118;2023-01-16T00:53:15;2.00;95.40
1155;DHT22;566;48.414;9.118;2023-01-16T00:55:41;2.00;95.40
1155;DHT22;566;48.414;9.118;2023-01-16T00:58:08;2.10;95.40
1155;DHT22;566;48.414;9.118;2023-01-16T01:00:34;2.20;95.20
1155;DHT22;566;48.414;9.118;2023-01-16T01:03:00;2.20;94.80
1155;DHT22;566;48.414;9.118;2023-01-16T01:05:27;2.20;95.00
1155;DHT22;566;48.414;9.118;2023-01-16T01:07:52;2.20;94.90
1155;DHT22;566;48.414;9.118;2023-01-16T01:10:18;2.30;94.90
1155;DHT22;566;48.414;9.118;2023-01-16T01:12:43;2.30;95.10
1155;DHT22;566;48.414;9.118;2023-01-16T01:15:09;2.40;94.80
1155;DHT22;566;48.414;9.118;2023-01-16T01:17:35;2.40;94.80
1155;DHT22;566;48.414;9.118;2023-01-16T01:20:00;2.40;94.80
1155;DHT22;566;48.414;9.118;2023-01-16T01:22:26;2.50;94.70
1155;DHT22;566;48.414;9.118;2023-01-16T01:24:52;2.50;94.50
1155;DHT22;566;48.414;9.118;2023-01-16T01:27:17;2.50;94.40
1155;DHT22;566;48.414;9.118;2023-01-16T01:29:43;2.50;94.20
1155;DHT22;566;48.414;9.118;2023-01-16T01:32:09;2.40;94.60
1155;DHT22;566;48.414;9.118;2023-01-16T01:34:37;2.30;95.10
1155;DHT22;566;48.414;9.118;2023-01-16T01:37:05;2.20;95.50
1155;DHT22;566;48.414;9.118;2023-01-16T01:39:31;2.10;95.70
1155;DHT22;566;48.414;9.118;2023-01-16T01:41:57;2.00;95.90
1155;DHT22;566;48.414;9.118;2023-01-16T01:44:54;2.00;96.50
1155;DHT22;566;48.414;9.118;2023-01-16T01:47:41;1.90;96.70
1155;DHT22;566;48.414;9.118;2023-01-16T01:53:00;2.00;96.50
1155;DHT22;566;48.414;9.118;2023-01-16T01:55:28;1.90;96.50
1155;DHT22;566;48.414;9.118;2023-01-16T01:57:56;2.00;96.30
1155;DHT22;566;48.414;9.118;2023-01-16T02:00:24;2.10;96.00
1155;DHT22;566;48.414;9.118;2023-01-16T02:02:57;2.20;95.60
1155;DHT22;566;48.414;9.118;2023-01-16T02:05:28;2.20;95.40
1155;DHT22;566;48.414;9.118;2023-01-16T02:07:54;2.30;95.00
1155;DHT22;566;48.414;9.118;2023-01-16T02:10:34;2.30;95.30
1155;DHT22;566;48.414;9.118;2023-01-16T02:13:05;2.20;95.40
1155;DHT22;566;48.414;9.118;2023-01-16T02:15:37;2.20;95.30
1155;DHT22;566;48.414;9.118;2023-01-16T02:18:23;2.10;95.80
1155;DHT22;566;48.414;9.118;2023-01-16T02:24:21;1.90;96.20
1155;DHT22;566;48.414;9.118;2023-01-16T02:29:59;1.70;96.50
1155;DHT22;566;48.414;9.118;2023-01-16T02:32:51;1.80;96.10
1155;DHT22;566;48.414;9.118;2023-01-16T02:37:55;1.80;95.90
1155;DHT22;566;48.414;9.118;2023-01-16T02:40:27;1.90;95.40
1155;DHT22;566;48.414;9.118;2023-01-16T02:43:16;1.90;95.30
1155;DHT22;566;48.414;9.118;2023-01-16T02:45:52;1.90;95.10
1155;DHT22;566;48.414;9.118;2023-01-16T02:51:38;1.90;94.70
1155;DHT22;566;48.414;9.118;2023-01-16T02:54:23;2.00;94.40
1155;DHT22;566;48.414;9.118;2023-01-16T02:56:56;2.00;94.10
1155;DHT22;566;48.414;9.118;2023-01-16T02:59:24;2.10;93.70
1155;DHT22;566;48.414;9.118;2023-01-16T03:01:52;2.10;93.40
1155;DHT22;566;48.414;9.118;2023-01-16T03:07:26;2.10;93.50
1155;DHT22;566;48.414;9.118;2023-01-16T03:10:37;2.00;94.00
1155;DHT22;566;48.414;9.118;2023-01-16T03:13:21;2.00;94.00
1155;DHT22;566;48.414;9.118;2023-01-16T03:18:41;2.00;94.50
1155;DHT22;566;48.414;9.118;2023-01-16T03:26:45;2.00;94.90
1155;DHT22;566;48.414;9.118;2023-01-16T03:29:31;2.10;94.30
1155;DHT22;566;48.414;9.118;2023-01-16T03:34:57;2.30;93.90
1155;DHT22;566;48.414;9.118;2023-01-16T03:37:35;2.30;93.60
1155;DHT22;566;48.414;9.118;2023-01-16T03:40:11;2.30;93.60
1155;DHT22;566;48.414;9.118;2023-01-16T03:42:38;2.30;93.80
1155;DHT22;566;48.414;9.118;2023-01-16T03:45:19;2.30;93.90
1155;DHT22;566;48.414;9.118;2023-01-16T03:47:51;2.30;94.00
1155;DHT22;566;48.414;9.118;2023-01-16T03:50:20;2.20;94.20
1155;DHT22;566;48.414;9.118;2023-01-16T03:52:52;2.20;94.30
1155;DHT22;566;48.414;9.118;2023-01-16T03:55:24;2.20;94.30
1155;DHT22;566;48.414;9.118;2023-01-16T03:57:59;2.20;94.30
1155;DHT22;566;48.414;9.118;2023-01-16T04:00:43;2.20;94.40
1155;DHT22;566;48.414;9.118;2023-01-16T04:03:18;2.20;94.20
1155;DHT22;566;48.414;9.118;2023-01-16T04:05:53;2.20;94.30
1155;DHT22;566;48.414;9.118;2023-01-16T04:08:40;2.10;94.40
1155;DHT22;566;48.414;9.118;2023-01-16T04:11:08;2.10;94.60
1155;DHT22;566;48.414;9.118;2023-01-16T04:13:36;2.10;94.90
1155;DHT22;566;48.414;9.118;2023-01-16T04:16:07;2.30;94.10
1155;DHT22;566;48.414;9.118;2023-01-16T04:18:35;2.30;93.70
1155;DHT22;566;48.414;9.118;2023-01-16T04:21:04;2.20;94.00
1155;DHT22;566;48.414;9.118;2023-01-16T04:23:30;2.10;94.30
1155;DHT22;566;48.414;9.118;2023-01-16T04:25:55;2.00;94.30
1155;DHT22;566;48.414;9.118;2023-01-16T04:28:21;2.10;94.20
1155;DHT22;566;48.414;9.118;2023-01-16T04:30:46;2.10;94.20
1155;DHT22;566;48.414;9.118;2023-01-16T04:33:12;2.10;94.20
1155;DHT22;566;48.414;9.118;2023-01-16T04:35:38;2.00;94.30
1155;DHT22;566;48.414;9.118;2023-01-16T04:38:03;2.00;94.00
1155;DHT22;566;48.414;9.118;2023-01-16T04:40:29;2.20;93.50
1155;DHT22;566;48.414;9.118;2023-01-16T04:42:54;2.30;93.10
1155;DHT22;566;48.414;9.118;2023-01-16T04:45:21;2.40;92.70
1155;DHT22;566;48.414;9.118;2023-01-16T04:47:47;2.40;92.70
1155;DHT22;566;48.414;9.118;2023-01-16T04:50:13;2.20;92.90
1155;DHT22;566;48.414;9.118;2023-01-16T04:52:40;2.20;93.20
1155;DHT22;566;48.414;9.118;2023-01-16T04:55:06;2.10;93.50
1155;DHT22;566;48.414;9.118;2023-01-16T04:57:32;2.00;93.90
1155;DHT22;566;48.414;9.118;2023-01-16T04:59:57;1.80;94.40
1155;DHT22;566;48.414;9.118;2023-01-16T05:02:23;1.60;95.40
1155;DHT22;566;48.414;9.118;2023-01-16T05:04:48;1.40;96.30
1155;DHT22;566;48.414;9.118;2023-01-16T05:07:14;1.30;96.60
1155;DHT22;566;48.414;9.118;2023-01-16T05:09:39;1.20;97.00
1155;DHT22;566;48.414;9.118;2023-01-16T05:12:05;1.20;97.30
1155;DHT22;566;48.414;9.118;2023-01-16T05:14:31;1.10;97.90
1155;DHT22;566;48.414;9.118;2023-01-16T05:16:56;1.00;98.00
1155;DHT22;566;48.414;9.118;2023-01-16T05:19:22;1.00;98.00
1155;DHT22;566;48.414;9.118;2023-01-16T05:21:47;0.90;98.00
1155;DHT22;566;48.414;9.118;2023-01-16T05:24:13;0.80;98.00
1155;DHT22;566;48.414;9.118;2023-01-16T05:26:38;0.80;98.00
1155;DHT22;566;48.414;9.118;2023-01-16T05:29:04;0.70;98.00
1155;DHT22;566;48.414;9.118;2023-01-16T05:31:29;0.70;98.00
1155;DHT22;566;48.414;9.118;2023-01-16T05:33:55;0.70;98.00
1155;DHT22;566;48.414;9.118;2023-01-16T05:36:21;0.80;98.00
1155;DHT22;566;48.414;9.118;2023-01-16T05:38:46;0.90;98.00
1155;DHT22;566;48.414;9.118;2023-01-16T05:41:12;0.90;98.00
1155;DHT22;566;48.414;9.118;2023-01-16T05:43:38;0.90;98.00
1155;DHT22;566;48.414;9.118;2023-01-16T05:46:03;1.00;97.80
1155;DHT22;566;48.414;9.118;2023-01-16T05:48:29;1.00;97.70
1155;DHT22;566;48.414;9.118;2023-01-16T05:50:57;0.90;97.80
1155;DHT22;566;48.414;9.118;2023-01-16T05:53:22;0.90;97.90
1155;DHT22;566;48.414;9.118;2023-01-16T05:55:48;1.00;98.00
1155;DHT22;566;48.414;9.118;2023-01-16T05:58:15;1.00;97.60
1155;DHT22;566;48.414;9.118;2023-01-16T06:00:42;1.10;97.20
1155;DHT22;566;48.414;9.118;2023-01-16T06:03:08;1.10;96.80
1155;DHT22;566;48.414;9.118;2023-01-16T06:05:34;1.10;96.70
1155;DHT22;566;48.414;9.118;2023-01-16T06:08:00;1.10;96.60
1155;DHT22;566;48.414;9.118;2023-01-16T06:10:26;1.20;96.40
1155;DHT22;566;48.414;9.118;2023-01-16T06:12:53;1.30;95.40
1155;DHT22;566;48.414;9.118;2023-01-16T06:15:19;1.50;94.90
1155;DHT22;566;48.414;9.118;2023-01-16T06:17:45;1.40;95.10
1155;DHT22;566;48.414;9.118;2023-01-16T06:20:12;1.40;94.90
1155;DHT22;566;48.414;9.118;2023-01-16T06:22:37;1.40;95.00
1155;DHT22;566;48.414;9.118;2023-01-16T06:25:04;1.40;95.00
1155;DHT22;566;48.414;9.118;2023-01-16T06:27:29;1.50;94.70
1155;DHT22;566;48.414;9.118;2023-01-16T06:29:57;1.50;94.80
1155;DHT22;566;48.414;9.118;2023-01-16T06:32:22;1.40;95.10
1155;DHT22;566;48.414;9.118;2023-01-16T06:34:48;1.40;95.20
1155;DHT22;566;48.414;9.118;2023-01-16T06:37:13;1.40;95.40
1155;DHT22;566;48.414;9.118;2023-01-16T06:39:39;1.40;95.30
1155;DHT22;566;48.414;9.118;2023-01-16T06:42:07;1.50;95.60
1155;DHT22;566;48.414;9.118;2023-01-16T06:44:33;1.40;95.50
1155;DHT22;566;48.414;9.118;2023-01-16T06:47:00;1.40;95.60
1155;DHT22;566;48.414;9.118;2023-01-16T06:49:26;1.40;95.80
1155;DHT22;566;48.414;9.118;2023-01-16T06:51:51;1.40;95.60
1155;DHT22;566;48.414;9.118;2023-01-16T06:54:17;1.40;95.80
1155;DHT22;566;48.414;9.118;2023-01-16T06:56:42;1.40;95.80
1155;DHT22;566;48.414;9.118;2023-01-16T06:59:08;1.30;96.20
1155;DHT22;566;48.414;9.118;2023-01-16T07:01:33;1.30;96.60
1155;DHT22;566;48.414;9.118;2023-01-16T07:03:59;1.20;97.10
1155;DHT22;566;48.414;9.118;2023-01-16T07:06:25;1.10;97.60
1155;DHT22;566;48.414;9.118;2023-01-16T07:08:50;1.00;97.90
1155;DHT22;566;48.414;9.118;2023-01-16T07:11:17;0.80;98.00
1155;DHT22;566;48.414;9.118;2023-01-16T07:13:43;0.70;98.00
1155;DHT22;566;48.414;9.118;2023-01-16T07:16:11;0.60;98.00
1155;DHT22;566;48.414;9.118;2023-01-16T07:18:55;0.60;98.00
1155;DHT22;566;48.414;9.118;2023-01-16T07:21:44;0.60;98.00
1155;DHT22;566;48.414;9.118;2023-01-16T07:24:32;0.60;98.00
1155;DHT22;566;48.414;9.118;2023-01-16T07:27:01;0.60;98.00
1155;DHT22;566;48.414;9.118;2023-01-16T07:29:30;0.60;98.00
1155;DHT22;566;48.414;9.118;2023-01-16T07:31:58;0.50;98.00
1155;DHT22;566;48.414;9.118;2023-01-16T07:34:25;0.50;98.00
1155;DHT22;566;48.414;9.118;2023-01-16T07:36:50;0.50;98.00
1155;DHT22;566;48.414;9.118;2023-01-16T07:39:16;0.50;98.00
1155;DHT22;566;48.414;9.118;2023-01-16T07:41:42;0.50;98.00
1155;DHT22;566;48.414;9.118;2023-01-16T07:44:07;0.60;98.00
1155;DHT22;566;48.414;9.118;2023-01-16T07:46:33;0.70;98.00
1155;DHT22;566;48.414;9.118;2023-01-16T07:48:58;0.70;97.90
1155;DHT22;566;48.414;9.118;2023-01-16T07:51:24;0.80;97.50
1155;DHT22;566;48.414;9.118;2023-01-16T07:53:50;0.90;97.30
1155;DHT22;566;48.414;9.118;2023-01-16T07:56:16;1.00;96.60
1155;DHT22;566;48.414;9.118;2023-01-16T07:58:41;1.10;96.10
1155;DHT22;566;48.414;9.118;2023-01-16T08:01:09;1.20;95.60
1155;DHT22;566;48.414;9.118;2023-01-16T08:03:35;1.20;95.10
1155;DHT22;566;48.414;9.118;2023-01-16T08:06:01;1.30;95.00
1155;DHT22;566;48.414;9.118;2023-01-16T08:08:28;1.30;95.10
1155;DHT22;566;48.414;9.118;2023-01-16T08:10:58;1.30;94.70
1155;DHT22;566;48.414;9.118;2023-01-16T08:13:25;1.40;93.90
1155;DHT22;566;48.414;9.118;2023-01-16T08:15:51;1.50;93.60
1155;DHT22;566;48.414;9.118;2023-01-16T08:18:17;1.60;92.90
1155;DHT22;566;48.414;9.118;2023-01-16T08:20:44;1.60;92.80
1155;DHT22;566;48.414;9.118;2023-01-16T08:23:10;1.60;92.50
1155;DHT22;566;48.414;9.118;2023-01-16T08:25:36;1.70;91.90
1155;DHT22;566;48.414;9.118;2023-01-16T08:28:02;1.90;90.30
1155;DHT22;566;48.414;9.118;2023-01-16T08:30:27;1.90;91.10
1155;DHT22;566;48.414;9.118;2023-01-16T08:33:02;1.90;90.80
1155;DHT22;566;48.414;9.118;2023-01-16T08:35:28;1.90;90.80
1155;DHT22;566;48.414;9.118;2023-01-16T08:37:54;1.90;89.90
1155;DHT22;566;48.414;9.118;2023-01-16T08:40:19;2.00;89.40
1155;DHT22;566;48.414;9.118;2023-01-16T08:42:46;2.10;89.30
1155;DHT22;566;48.414;9.118;2023-01-16T08:45:30;2.10;88.70
1155;DHT22;566;48.414;9.118;2023-01-16T08:48:20;2.20;88.10
1155;DHT22;566;48.414;9.118;2023-01-16T08:51:06;2.30;87.40
1155;DHT22;566;48.414;9.118;2023-01-16T08:53:49;2.40;86.40
1155;DHT22;566;48.414;9.118;2023-01-16T08:56:14;2.50;86.20
1155;DHT22;566;48.414;9.118;2023-01-16T08:58:40;2.60;85.30
1155;DHT22;566;48.414;9.118;2023-01-16T09:01:07;2.80;84.30
1155;DHT22;566;48.414;9.118;2023-01-16T09:03:32;3.00;82.90
1155;DHT22;566;48.414;9.118;2023-01-16T09:05:59;3.20;82.60
1155;DHT22;566;48.414;9.118;2023-01-16T09:08:25;3.40;81.10
1155;DHT22;566;48.414;9.118;2023-01-16T09:10:51;3.40;80.90
1155;DHT22;566;48.414;9.118;2023-01-16T09:13:35;3.40;80.60
1155;DHT22;566;48.414;9.118;2023-01-16T09:16:21;3.40;80.90
1155;DHT22;566;48.414;9.118;2023-01-16T09:18:47;3.30;82.00
1155;DHT22;566;48.414;9.118;2023-01-16T09:21:13;3.10;82.30
1155;DHT22;566;48.414;9.118;2023-01-16T09:23:39;3.00;83.70
1155;DHT22;566;48.414;9.118;2023-01-16T09:26:05;2.90;84.10
1155;DHT22;566;48.414;9.118;2023-01-16T09:28:31;2.90;83.90
1155;DHT22;566;48.414;9.118;2023-01-16T09:30:57;2.80;84.20
1155;DHT22;566;48.414;9.118;2023-01-16T09:33:22;2.80;84.30
1155;DHT22;566;48.414;9.118;2023-01-16T09:35:48;2.90;83.90
1155;DHT22;566;48.414;9.118;2023-01-16T09:38:13;3.00;83.70
1155;DHT22;566;48.414;9.118;2023-01-16T09:40:43;3.00;83.10
1155;DHT22;566;48.414;9.118;2023-01-16T09:43:37;3.10;83.00
1155;DHT22;566;48.414;9.118;2023-01-16T09:46:16;3.20;82.80
1155;DHT22;566;48.414;9.118;2023-01-16T09:49:04;3.20;82.90
1155;DHT22;566;48.414;9.118;2023-01-16T09:51:43;3.30;82.90
1155;DHT22;566;48.414;9.118;2023-01-16T09:54:39;3.30;82.30
1155;DHT22;566;48.414;9.118;2023-01-16T09:57:26;3.40;81.60
1155;DHT22;566;48.414;9.118;2023-01-16T10:00:12;3.40;80.80
1155;DHT22;566;48.414;9.118;2023-01-16T10:02:40;3.40;80.90
1155;DHT22;566;48.414;9.118;2023-01-16T10:05:06;3.40;81.30
1155;DHT22;566;48.414;9.118;2023-01-16T10:07:56;3.50;81.60
1155;DHT22;566;48.414;9.118;2023-01-16T10:10:40;3.60;81.90
1155;DHT22;566;48.414;9.118;2023-01-16T10:19:02;3.90;81.60
1155;DHT22;566;48.414;9.118;2023-01-16T10:30:09;3.90;81.10
1155;DHT22;566;48.414;9.118;2023-01-16T10:32:52;4.10;80.80
1155;DHT22;566;48.414;9.118;2023-01-16T10:35:23;4.20;80.50
1155;DHT22;566;48.414;9.118;2023-01-16T10:37:50;4.40;79.90
1155;DHT22;566;48.414;9.118;2023-01-16T10:40:27;4.30;80.60
1155;DHT22;566;48.414;9.118;2023-01-16T10:43:04;4.20;80.20
1155;DHT22;566;48.414;9.118;2023-01-16T10:45:54;4.10;80.60
1155;DHT22;566;48.414;9.118;2023-01-16T10:48:39;4.10;81.60
1155;DHT22;566;48.414;9.118;2023-01-16T10:51:23;4.10;81.80
1155;DHT22;566;48.414;9.118;2023-01-16T10:53:49;4.20;82.00
1155;DHT22;566;48.414;9.118;2023-01-16T10:56:18;4.10;82.80
1155;DHT22;566;48.414;9.118;2023-01-16T10:58:43;4.10;84.10
1155;DHT22;566;48.414;9.118;2023-01-16T11:01:21;3.90;84.50
1155;DHT22;566;48.414;9.118;2023-01-16T11:03:48;3.90;85.70
1155;DHT22;566;48.414;9.118;2023-01-16T11:09:05;3.80;87.40
1155;DHT22;566;48.414;9.118;2023-01-16T11:11:34;3.70;90.10
1155;DHT22;566;48.414;9.118;2023-01-16T11:14:25;3.50;91.70
1155;DHT22;566;48.414;9.118;2023-01-16T11:17:29;3.30;93.70
1155;DHT22;566;48.414;9.118;2023-01-16T11:20:35;3.10;95.20
1155;DHT22;566;48.414;9.118;2023-01-16T11:23:17;3.10;96.50
1155;DHT22;566;48.414;9.118;2023-01-16T11:25:44;3.00;96.90
1155;DHT22;566;48.414;9.118;2023-01-16T11:28:17;3.00;97.00
1155;DHT22;566;48.414;9.118;2023-01-16T11:30:45;3.10;96.90
1155;DHT22;566;48.414;9.118;2023-01-16T11:33:21;3.30;96.70
1155;DHT22;566;48.414;9.118;2023-01-16T11:35:57;3.40;96.10
1155;DHT22;566;48.414;9.118;2023-01-16T11:38:24;3.50;95.90
1155;DHT22;566;48.414;9.118;2023-01-16T11:40:52;3.70;95.30
1155;DHT22;566;48.414;9.118;2023-01-16T11:43:24;3.70;95.10
1155;DHT22;566;48.414;9.118;2023-01-16T11:48:55;3.70;94.70
1155;DHT22;566;48.414;9.118;2023-01-16T11:51:31;3.70;94.80
1155;DHT22;566;48.414;9.118;2023-01-16T11:53:57;3.80;94.90
1155;DHT22;566;48.414;9.118;2023-01-16T12:01:26;3.90;94.70
1155;DHT22;566;48.414;9.118;2023-01-16T12:04:25;3.90;94.80
1155;DHT22;566;48.414;9.118;2023-01-16T12:07:16;4.10;94.70
1155;DHT22;566;48.414;9.118;2023-01-16T12:10:45;4.30;94.30
1155;DHT22;566;48.414;9.118;2023-01-16T12:13:10;4.20;93.90
1155;DHT22;566;48.414;9.118;2023-01-16T12:15:58;4.10;94.10
1155;DHT22;566;48.414;9.118;2023-01-16T12:18:39;4.10;94.50
1155;DHT22;566;48.414;9.118;2023-01-16T12:21:29;4.10;94.10
1155;DHT22;566;48.414;9.118;2023-01-16T12:26:29;4.30;94.20
1155;DHT22;566;48.414;9.118;2023-01-16T12:29:16;4.30;93.90
1155;DHT22;566;48.414;9.118;2023-01-16T12:43:25;4.40;94.10
1155;DHT22;566;48.414;9.118;2023-01-16T12:46:00;4.30;94.60
1155;DHT22;566;48.414;9.118;2023-01-16T12:51:35;4.40;93.70
1155;DHT22;566;48.414;9.118;2023-01-16T12:57:37;4.50;94.20
1155;DHT22;566;48.414;9.118;2023-01-16T13:00:15;4.60;93.40
1155;DHT22;566;48.414;9.118;2023-01-16T13:05:20;4.40;93.20
1155;DHT22;566;48.414;9.118;2023-01-16T13:10:30;4.50;92.40
1155;DHT22;566;48.414;9.118;2023-01-16T13:13:20;4.50;92.40
1155;DHT22;566;48.414;9.118;2023-01-16T13:21:27;4.80;91.50
1155;DHT22;566;48.414;9.118;2023-01-16T13:23:58;4.90;90.90
1155;DHT22;566;48.414;9.118;2023-01-16T13:26:26;5.00;90.70
1155;DHT22;566;48.414;9.118;2023-01-16T13:31:48;5.80;88.50
1155;DHT22;566;48.414;9.118;2023-01-16T13:34:35;5.60;87.90
1155;DHT22;566;48.414;9.118;2023-01-16T13:42:29;5.60;87.40
1155;DHT22;566;48.414;9.118;2023-01-16T13:45:06;5.10;88.20
1155;DHT22;566;48.414;9.118;2023-01-16T13:47:52;5.10;89.20
1155;DHT22;566;48.414;9.118;2023-01-16T13:50:27;4.80;89.50
1155;DHT22;566;48.414;9.118;2023-01-16T13:53:00;4.50;90.70
1155;DHT22;566;48.414;9.118;2023-01-16T13:55:38;4.30;91.40
1155;DHT22;566;48.414;9.118;2023-01-16T13:58:22;4.30;91.60
1155;DHT22;566;48.414;9.118;2023-01-16T14:00:59;4.30;91.60
1155;DHT22;566;48.414;9.118;2023-01-16T14:03:33;4.30;91.30
1155;DHT22;566;48.414;9.118;2023-01-16T14:11:58;4.30;91.50
1155;DHT22;566;48.414;9.118;2023-01-16T14:23:31;4.30;92.80
1155;DHT22;566;48.414;9.118;2023-01-16T14:26:32;4.50;92.20
1155;DHT22;566;48.414;9.118;2023-01-16T14:29:00;4.50;92.00
1155;DHT22;566;48.414;9.118;2023-01-16T14:31:39;4.20;92.10
1155;DHT22;566;48.414;9.118;2023-01-16T14:34:09;4.00;92.80
1155;DHT22;566;48.414;9.118;2023-01-16T14:36:42;3.90;93.60
1155;DHT22;566;48.414;9.118;2023-01-16T14:39:36;3.80;94.00
1155;DHT22;566;48.414;9.118;2023-01-16T14:42:13;3.80;94.30
1155;DHT22;566;48.414;9.118;2023-01-16T14:48:11;3.90;94.40
1155;DHT22;566;48.414;9.118;2023-01-16T14:54:10;4.00;94.00
1155;DHT22;566;48.414;9.118;2023-01-16T14:57:24;4.20;93.60
1155;DHT22;566;48.414;9.118;2023-01-16T15:00:06;4.20;93.20
1155;DHT22;566;48.414;9.118;2023-01-16T15:02:53;4.20;93.50
1155;DHT22;566;48.414;9.118;2023-01-16T15:05:34;4.20;93.90
1155;DHT22;566;48.414;9.118;2023-01-16T15:08:28;4.10;93.60
1155;DHT22;566;48.414;9.118;2023-01-16T15:10:56;4.00;94.00
1155;DHT22;566;48.414;9.118;2023-01-16T15:16:02;3.70;95.40
1155;DHT22;566;48.414;9.118;2023-01-16T15:18:30;3.60;95.60
1155;DHT22;566;48.414;9.118;2023-01-16T15:21:16;3.60;96.00
1155;DHT22;566;48.414;9.118;2023-01-16T15:24:03;3.60;96.30
1155;DHT22;566;48.414;9.118;2023-01-16T15:32:14;3.60;96.70
1155;DHT22;566;48.414;9.118;2023-01-16T15:34:47;3.60;96.90
1155;DHT22;566;48.414;9.118;2023-01-16T15:37:24;3.70;96.50
1155;DHT22;566;48.414;9.118;2023-01-16T15:39:53;3.70;96.50
1155;DHT22;566;48.414;9.118;2023-01-16T15:42:21;3.70;96.70
1155;DHT22;566;48.414;9.118;2023-01-16T15:45:25;3.70;96.50
1155;DHT22;566;48.414;9.118;2023-01-16T15:48:16;3.70;96.70
1155;DHT22;566;48.414;9.118;2023-01-16T15:50:59;3.60;98.00
1155;DHT22;566;48.414;9.118;2023-01-16T15:53:36;3.30;98.00
1155;DHT22;566;48.414;9.118;2023-01-16T15:58:42;2.80;98.00
1155;DHT22;566;48.414;9.118;2023-01-16T16:01:08;2.60;97.00
1155;DHT22;566;48.414;9.118;2023-01-16T16:03:48;2.50;95.20
1155;DHT22;566;48.414;9.118;2023-01-16T16:06:17;2.40;96.10
1155;DHT22;566;48.414;9.118;2023-01-16T16:08:46;2.30;94.00
1155;DHT22;566;48.414;9.118;2023-01-16T16:11:32;2.40;96.80
1155;DHT22;566;48.414;9.118;2023-01-16T16:14:28;2.40;95.90
1155;DHT22;566;48.414;9.118;2023-01-16T16:23:16;2.50;98.00
1155;DHT22;566;48.414;9.118;2023-01-16T16:26:04;2.60;98.00
1155;DHT22;566;48.414;9.118;2023-01-16T16:31:14;2.70;98.00
1155;DHT22;566;48.414;9.118;2023-01-16T16:33:41;2.70;98.00
1155;DHT22;566;48.414;9.118;2023-01-16T16:36:15;2.70;98.00
1155;DHT22;566;48.414;9.118;2023-01-16T16:38:49;2.70;98.00
1155;DHT22;566;48.414;9.118;2023-01-16T16:43:49;2.70;98.00
1155;DHT22;566;48.414;9.118;2023-01-16T16:48:48;2.70;98.00
1155;DHT22;566;48.414;9.118;2023-01-16T16:51:29;2.70;97.90
1155;DHT22;566;48.414;9.118;2023-01-16T16:54:08;2.60;98.00
1155;DHT22;566;48.414;9.118;2023-01-16T16:56:36;2.80;98.00
1155;DHT22;566;48.414;9.118;2023-01-16T16:59:03;2.90;98.00
1155;DHT22;566;48.414;9.118;2023-01-16T17:01:29;2.90;98.00
1155;DHT22;566;48.414;9.118;2023-01-16T17:03:57;2.90;98.00
1155;DHT22;566;48.414;9.118;2023-01-16T17:06:32;2.90;98.00
1155;DHT22;566;48.414;9.118;2023-01-16T17:08:58;3.00;98.00
1155;DHT22;566;48.414;9.118;2023-01-16T17:11:25;2.90;98.00
1155;DHT22;566;48.414;9.118;2023-01-16T17:13:51;3.00;98.00
1155;DHT22;566;48.414;9.118;2023-01-16T17:16:19;3.10;98.00
1155;DHT22;566;48.414;9.118;2023-01-16T17:18:46;3.20;98.00
1155;DHT22;566;48.414;9.118;2023-01-16T17:21:14;3.20;98.00
1155;DHT22;566;48.414;9.118;2023-01-16T17:23:40;3.30;98.00
1155;DHT22;566;48.414;9.118;2023-01-16T17:26:06;3.20;98.00
1155;DHT22;566;48.414;9.118;2023-01-16T17:28:34;3.20;98.00
1155;DHT22;566;48.414;9.118;2023-01-16T17:30:59;3.10;98.00
1155;DHT22;566;48.414;9.118;2023-01-16T17:33:25;2.90;98.00
1155;DHT22;566;48.414;9.118;2023-01-16T17:35:52;2.90;98.00
1155;DHT22;566;48.414;9.118;2023-01-16T17:38:38;2.80;98.00
1155;DHT22;566;48.414;9.118;2023-01-16T17:41:06;2.70;98.00
1155;DHT22;566;48.414;9.118;2023-01-16T17:43:37;2.60;98.00
1155;DHT22;566;48.414;9.118;2023-01-16T17:46:21;2.50;98.00
1155;DHT22;566;48.414;9.118;2023-01-16T17:48:49;2.50;98.00
1155;DHT22;566;48.414;9.118;2023-01-16T17:51:16;2.50;98.00
1155;DHT22;566;48.414;9.118;2023-01-16T17:53:47;2.40;98.00
1155;DHT22;566;48.414;9.118;2023-01-16T17:56:13;2.40;98.00
1155;DHT22;566;48.414;9.118;2023-01-16T17:58:39;2.50;98.00
1155;DHT22;566;48.414;9.118;2023-01-16T18:01:12;2.50;98.00
1155;DHT22;566;48.414;9.118;2023-01-16T18:03:38;2.50;98.00
1155;DHT22;566;48.414;9.118;2023-01-16T18:06:06;2.40;98.00
1155;DHT22;566;48.414;9.118;2023-01-16T18:08:32;2.50;98.00
1155;DHT22;566;48.414;9.118;2023-01-16T18:10:59;2.60;98.00
1155;DHT22;566;48.414;9.118;2023-01-16T18:13:47;2.70;98.00
1155;DHT22;566;48.414;9.118;2023-01-16T18:16:31;2.70;98.00
1155;DHT22;566;48.414;9.118;2023-01-16T18:19:15;2.80;98.00
1155;DHT22;566;48.414;9.118;2023-01-16T18:21:40;2.80;98.00
1155;DHT22;566;48.414;9.118;2023-01-16T18:24:32;2.90;98.00
1155;DHT22;566;48.414;9.118;2023-01-16T18:26:58;3.00;98.00
1155;DHT22;566;48.414;9.118;2023-01-16T18:29:24;3.00;98.00
1155;DHT22;566;48.414;9.118;2023-01-16T18:31:52;3.00;98.00
1155;DHT22;566;48.414;9.118;2023-01-16T18:34:36;3.00;98.00
1155;DHT22;566;48.414;9.118;2023-01-16T18:37:02;3.00;98.00
1155;DHT22;566;48.414;9.118;2023-01-16T18:39:27;3.00;98.00
1155;DHT22;566;48.414;9.118;2023-01-16T18:42:13;3.00;98.00
1155;DHT22;566;48.414;9.118;2023-01-16T18:44:57;3.00;98.00
1155;DHT22;566;48.414;9.118;2023-01-16T18:47:41;3.00;98.00
1155;DHT22;566;48.414;9.118;2023-01-16T18:50:25;3.10;97.80
1155;DHT22;566;48.414;9.118;2023-01-16T18:53:38;3.00;97.90
1155;DHT22;566;48.414;9.118;2023-01-16T18:56:25;3.10;97.30
1155;DHT22;566;48.414;9.118;2023-01-16T18:59:16;3.00;97.80
1155;DHT22;566;48.414;9.118;2023-01-16T19:04:43;3.10;97.20
1155;DHT22;566;48.414;9.118;2023-01-16T19:07:12;3.10;97.30
1155;DHT22;566;48.414;9.118;2023-01-16T19:09:40;3.10;97.10
1155;DHT22;566;48.414;9.118;2023-01-16T19:12:07;3.10;97.10
1155;DHT22;566;48.414;9.118;2023-01-16T19:14:40;3.10;96.50
1155;DHT22;566;48.414;9.118;2023-01-16T19:17:07;3.00;97.00
1155;DHT22;566;48.414;9.118;2023-01-16T19:19:32;3.00;96.10
1155;DHT22;566;48.414;9.118;2023-01-16T19:21:59;3.10;96.40
1155;DHT22;566;48.414;9.118;2023-01-16T19:24:25;3.10;96.80
1155;DHT22;566;48.414;9.118;2023-01-16T19:26:53;3.10;96.30
1155;DHT22;566;48.414;9.118;2023-01-16T19:29:21;3.20;95.90
1155;DHT22;566;48.414;9.118;2023-01-16T19:31:47;3.20;95.80